Time;durP1;ratioP1;P1;durP2;ratioP2;P2;SDS_P1;SDS_P2;PMS_P1;PMS_P2;Temp;Humidity;BMP_temperature;BMP_pressure;BME280_temperature;BME280_humidity;BME280_pressure;Samples;Min_cycle;Max_cycle;Signal;HPM_P1;HPM_P2
2022/06/10 00:00:10;;;;;;;5.93;4.33;;;;;;;21.12;96.43;98605.19;5053923;28;20270;-62
2022/06/10 00:02:37;;;;;;;4.50;4.10;;;;;;;21.22;96.16;98605.06;5054502;28;20273;-62
2022/06/10 00:05:05;;;;;;;4.97;4.57;;;;;;;21.25;95.84;98602.63;5054105;28;20201;-61
2022/06/10 00:07:34;;;;;;;4.77;4.37;;;;;;;21.31;95.48;98614.97;5053906;28;20724;-62
2022/06/10 00:10:01;;;;;;;5.07;4.60;;;;;;;21.26;95.47;98612.31;5054093;28;20723;-61
2022/06/10 00:12:29;;;;;;;5.17;4.70;;;;;;;21.21;96.26;98604.28;5053824;28;20201;-63
2022/06/10 00:14:56;;;;;;;6.60;4.73;;;;;;;20.92;97.47;98600.78;5053045;28;20196;-62
2022/06/10 00:17:23;;;;;;;5.80;5.03;;;;;;;21.02;98.04;98603.38;5054539;28;20632;-62
2022/06/10 00:19:50;;;;;;;6.23;5.43;;;;;;;20.87;96.82;98598.13;5053806;28;20611;-62
2022/06/10 00:22:16;;;;;;;5.20;4.90;;;;;;;20.98;98.11;98620.44;5054424;28;20200;-62
2022/06/10 00:24:43;;;;;;;7.27;4.73;;;;;;;21.08;97.74;98623.88;5053848;28;20246;-63
2022/06/10 00:27:10;;;;;;;5.70;5.30;;;;;;;21.17;97.32;98629.44;5054088;28;20189;-62
2022/06/10 00:29:38;;;;;;;5.10;4.57;;;;;;;21.19;97.04;98627.28;5054332;28;20278;-62
2022/06/10 00:32:05;;;;;;;5.40;5.00;;;;;;;21.16;97.00;98625.94;5053938;28;20192;-61
2022/06/10 00:34:35;;;;;;;5.60;5.13;;;;;;;21.11;96.26;98622.47;5054000;28;20188;-62
2022/06/10 00:37:02;;;;;;;5.77;5.40;;;;;;;21.19;97.12;98617.25;5054114;28;20224;-62
2022/06/10 00:39:29;;;;;;;5.73;5.33;;;;;;;21.10;96.85;98615.47;5053589;28;20282;-62
2022/06/10 00:41:56;;;;;;;6.23;5.03;;;;;;;21.04;97.10;98620.13;5053517;28;20318;-62
2022/06/10 00:44:33;;;;;;;5.63;5.23;;;;;;;21.09;97.67;98609.25;5053476;28;20738;-62
2022/06/10 00:47:03;;;;;;;5.87;5.20;;;;;;;21.17;97.57;98613.22;5053411;28;20192;-62
2022/06/10 00:49:31;;;;;;;5.47;5.10;;;;;;;21.23;97.43;98607.47;5054347;28;20327;-62
2022/06/10 00:51:58;;;;;;;5.50;5.17;;;;;;;21.24;97.21;98609.13;5053549;28;20193;-62
2022/06/10 00:54:30;;;;;;;5.63;5.13;;;;;;;21.22;96.54;98608.59;5054369;28;20205;-62
2022/06/10 00:57:02;;;;;;;5.83;5.33;;;;;;;21.26;95.99;98600.69;5053609;28;20242;-62
2022/06/10 00:59:33;;;;;;;5.37;4.97;;;;;;;21.33;95.80;98599.28;5053129;28;20244;-61
2022/06/10 01:02:04;;;;;;;8.00;7.40;;;;;;;21.47;95.14;98592.09;5054232;28;20238;-62
2022/06/10 01:04:31;;;;;;;8.93;8.20;;;;;;;21.55;92.75;98593.38;5053937;28;20633;-62
2022/06/10 01:06:58;;;;;;;8.67;8.07;;;;;;;21.53;91.59;98579.34;5053210;28;20267;-63
2022/06/10 01:09:27;;;;;;;9.83;9.13;;;;;;;21.67;90.55;98596.44;5052946;28;20201;-62
2022/06/10 01:12:22;;;;;;;10.93;10.17;;;;;;;21.67;90.35;98591.84;5053183;28;20189;-62
2022/06/10 01:15:05;;;;;;;14.90;13.90;;;;;;;21.82;89.15;98599.00;5052900;28;20242;-62
2022/06/10 01:17:48;;;;;;;16.57;15.00;;;;;;;21.90;87.96;98609.16;5053700;28;20188;-62
2022/06/10 01:20:25;;;;;;;14.60;13.30;;;;;;;21.92;87.71;98613.19;5053591;28;20205;-62
2022/06/10 01:23:20;;;;;;;13.97;13.00;;;;;;;21.90;87.62;98618.09;5052741;28;20185;-63
2022/06/10 01:26:17;;;;;;;11.23;10.33;;;;;;;21.99;87.45;98613.66;5052555;28;20193;-62
2022/06/10 01:29:19;;;;;;;14.80;13.83;;;;;;;22.05;86.48;98617.88;5047673;28;20192;-62
2022/06/10 01:31:54;;;;;;;13.70;12.50;;;;;;;22.07;86.62;98631.13;5052478;28;20549;-62
2022/06/10 01:34:28;;;;;;;15.00;13.90;;;;;;;22.10;86.44;98628.66;5052990;28;20188;-61
2022/06/10 01:37:01;;;;;;;14.70;13.67;;;;;;;22.03;88.32;98630.91;5053080;28;20188;-61
2022/06/10 01:39:40;;;;;;;10.60;9.70;;;;;;;21.83;89.27;98633.88;5052807;28;20289;-61
2022/06/10 01:42:13;;;;;;;9.53;8.37;;;;;;;21.63;89.64;98638.66;5052855;28;20192;-62
2022/06/10 01:44:50;;;;;;;9.53;8.93;;;;;;;21.38;93.02;98625.44;5053077;28;20273;-62
2022/06/10 01:47:22;;;;;;;6.80;6.30;;;;;;;21.32;93.15;98622.00;5053684;28;20192;-62
2022/06/10 01:49:56;;;;;;;6.50;5.83;;;;;;;21.34;92.70;98622.50;5052483;28;20184;-62
2022/06/10 01:52:32;;;;;;;6.87;6.17;;;;;;;21.36;92.90;98622.22;5052190;28;20242;-62
2022/06/10 01:55:08;;;;;;;6.67;5.70;;;;;;;21.39;92.55;98630.56;5053404;28;20180;-63
2022/06/10 01:57:40;;;;;;;6.97;6.47;;;;;;;21.39;91.97;98627.84;5053033;28;20193;-63
2022/06/10 02:00:12;;;;;;;7.00;5.80;;;;;;;21.41;92.31;98636.50;5052408;28;20662;-63
2022/06/10 02:02:47;;;;;;;6.97;6.47;;;;;;;21.34;92.92;98625.22;5052146;28;20234;-63
2022/06/10 02:05:19;;;;;;;8.87;6.23;;;;;;;21.36;92.99;98617.59;5052115;28;20647;-62
2022/06/10 02:07:51;;;;;;;8.07;7.37;;;;;;;21.40;92.09;98618.66;5053246;28;20276;-62
2022/06/10 02:10:23;;;;;;;10.97;10.17;;;;;;;21.47;92.21;98619.13;5052492;28;20254;-62
2022/06/10 02:12:55;;;;;;;10.70;9.73;;;;;;;21.52;91.59;98615.56;5052582;28;20189;-63
2022/06/10 02:15:28;;;;;;;13.70;12.70;;;;;;;21.59;90.30;98614.13;5052003;28;20192;-61
2022/06/10 02:18:00;;;;;;;13.10;11.90;;;;;;;21.57;89.95;98610.09;5051964;28;20234;-61
2022/06/10 02:20:30;;;;;;;13.27;12.20;;;;;;;21.59;90.26;98614.13;5051782;28;20766;-62
2022/06/10 02:23:01;;;;;;;12.40;11.43;;;;;;;21.61;90.17;98617.34;5051932;28;20189;-62
2022/06/10 02:25:34;;;;;;;12.40;11.50;;;;;;;21.65;89.59;98618.38;5052393;28;20192;-62
2022/06/10 02:28:06;;;;;;;11.47;10.73;;;;;;;21.70;89.26;98626.47;5052957;28;20243;-62
2022/06/10 02:30:38;;;;;;;12.27;11.03;;;;;;;21.75;88.81;98629.09;5052603;28;20196;-62
2022/06/10 02:33:06;;;;;;;9.67;9.07;;;;;;;21.80;88.53;98634.44;5052939;28;20188;-62
2022/06/10 02:35:44;;;;;;;13.13;11.97;;;;;;;21.63;87.39;98627.84;5052590;28;20257;-62
2022/06/10 02:38:15;;;;;;;11.70;10.77;;;;;;;21.74;88.18;98642.91;5053409;28;20188;-62
2022/06/10 02:40:49;;;;;;;12.03;11.13;;;;;;;21.78;87.81;98643.94;5055746;28;20266;-62
2022/06/10 02:43:27;;;;;;;13.53;12.43;;;;;;;21.79;87.46;98646.34;5056668;28;20238;-62
2022/06/10 02:45:58;;;;;;;12.93;11.90;;;;;;;21.83;87.61;98655.50;5055768;28;20648;-62
2022/06/10 02:48:34;;;;;;;14.40;13.33;;;;;;;21.87;86.98;98669.22;5055681;28;20724;-62
2022/06/10 02:51:01;;;;;;;13.67;12.47;;;;;;;21.88;86.83;98674.34;5056408;28;20192;-62
2022/06/10 02:53:28;;;;;;;12.83;12.00;;;;;;;21.89;87.08;98664.34;5056227;28;20295;-63
2022/06/10 02:55:56;;;;;;;15.83;11.83;;;;;;;21.70;87.16;98667.00;5055594;28;20208;-63
2022/06/10 03:01:20;;;;;;;14.47;13.10;;;;;;;21.63;87.66;98669.22;5055455;28;20215;-62
2022/06/10 03:04:09;;;;;;;15.07;13.67;;;;;;;21.66;87.76;98676.75;5055421;28;20649;-62
2022/06/10 03:06:45;;;;;;;15.20;13.63;;;;;;;21.65;88.55;98672.44;5055569;28;20193;-62
2022/06/10 03:09:18;;;;;;;16.60;15.00;;;;;;;21.65;88.34;98679.75;5056395;28;20188;-62
2022/06/10 03:11:53;;;;;;;11.90;11.00;;;;;;;21.68;88.81;98679.97;5055218;28;20721;-62
2022/06/10 03:14:41;;;;;;;15.60;14.50;;;;;;;21.77;88.18;98683.69;5055195;28;20645;-62
2022/06/10 03:17:17;;;;;;;19.13;17.40;;;;;;;21.83;87.48;98677.13;5055117;28;20185;-62
2022/06/10 03:19:58;;;;;;;17.43;16.13;;;;;;;21.88;86.72;98685.16;5055140;28;20267;-62
2022/06/10 03:22:42;;;;;;;16.20;15.00;;;;;;;21.69;85.13;98684.28;5055372;28;20189;-62
2022/06/10 03:25:20;;;;;;;16.70;15.23;;;;;;;21.73;85.30;98689.97;5055066;28;20628;-62
2022/06/10 03:27:53;;;;;;;17.43;15.87;;;;;;;21.77;85.25;98697.22;5054774;28;20242;-62
2022/06/10 03:30:25;;;;;;;15.17;13.80;;;;;;;21.84;85.34;98700.38;5054816;28;20624;-62
2022/06/10 03:32:58;;;;;;;16.23;14.80;;;;;;;21.93;84.99;98703.25;5054730;28;20718;-62
2022/06/10 03:35:33;;;;;;;18.97;14.93;;;;;;;22.00;84.52;98704.50;5055485;28;20192;-62
2022/06/10 03:38:03;;;;;;;16.80;15.50;;;;;;;21.97;84.41;98715.88;5055173;28;20235;-63
2022/06/10 03:40:31;;;;;;;16.73;15.33;;;;;;;21.84;84.07;98711.19;5054221;28;20232;-62
2022/06/10 03:43:01;;;;;;;15.53;14.03;;;;;;;21.77;83.94;98718.84;5054481;28;20258;-62
2022/06/10 03:45:33;;;;;;;13.87;12.97;;;;;;;21.83;84.65;98731.19;5055156;28;20246;-62
2022/06/10 03:48:00;;;;;;;16.03;14.67;;;;;;;21.96;84.19;98729.72;5054349;28;20645;-62
2022/06/10 03:50:31;;;;;;;17.67;16.00;;;;;;;21.94;84.21;98727.31;5054002;28;20200;-62
2022/06/10 03:52:58;;;;;;;17.03;15.57;;;;;;;21.84;84.00;98722.00;5054628;28;20192;-62
2022/06/10 03:55:25;;;;;;;17.80;16.23;;;;;;;21.72;83.96;98720.78;5054376;28;20196;-62
2022/06/10 03:57:52;;;;;;;18.37;16.60;;;;;;;21.69;84.68;98714.03;5054126;28;20201;-62
2022/06/10 04:00:21;;;;;;;18.23;16.50;;;;;;;21.73;84.76;98715.09;5054386;28;20196;-63
2022/06/10 04:02:48;;;;;;;10.63;9.80;;;;;;;21.65;84.48;98721.09;5054259;28;20193;-58
2022/06/10 04:05:14;;;;;;;17.83;16.10;;;;;;;21.37;85.10;98705.69;5054215;28;20733;-58
2022/06/10 04:07:43;;;;;;;16.93;15.73;;;;;;;21.55;85.50;98717.69;5053857;28;20749;-59
2022/06/10 04:10:14;;;;;;;17.83;16.27;;;;;;;21.68;84.72;98717.81;5054116;28;20707;-59
2022/06/10 04:12:40;;;;;;;17.83;16.40;;;;;;;21.59;84.93;98711.41;5054961;28;20573;-59
2022/06/10 04:15:08;;;;;;;19.73;17.00;;;;;;;21.23;86.17;98706.66;5054006;28;20576;-58
2022/06/10 04:17:35;;;;;;;19.63;17.70;;;;;;;20.86;88.26;98715.25;5042275;28;20203;-58
2022/06/10 04:20:03;;;;;;;19.83;17.97;;;;;;;20.94;88.29;98712.00;5053914;28;20254;-59
2022/06/10 04:22:30;;;;;;;21.27;19.10;;;;;;;20.59;90.64;98712.22;5053844;28;20311;-59
2022/06/10 04:24:58;;;;;;;19.73;17.83;;;;;;;20.73;89.56;98710.50;5052795;28;20710;-58
2022/06/10 04:27:25;;;;;;;19.60;18.00;;;;;;;20.65;90.05;98708.41;5053801;28;20609;-58
2022/06/10 04:29:52;;;;;;;18.27;16.70;;;;;;;20.70;89.37;98719.16;5052739;28;20208;-59
2022/06/10 04:32:18;;;;;;;20.67;18.67;;;;;;;20.73;89.56;98705.09;5053716;28;20254;-58
2022/06/10 04:34:45;;;;;;;22.40;20.33;;;;;;;20.84;89.10;98712.06;5052586;28;20188;-58
2022/06/10 04:37:12;;;;;;;23.27;21.03;;;;;;;20.86;88.99;98709.06;5054231;28;20242;-58
2022/06/10 04:39:39;;;;;;;20.47;18.80;;;;;;;21.00;89.39;98716.28;5053978;28;20228;-59
2022/06/10 04:42:08;;;;;;;18.73;17.17;;;;;;;21.19;87.69;98719.91;5034255;28;20275;-58
2022/06/10 04:44:35;;;;;;;21.07;19.13;;;;;;;20.53;91.30;98721.41;5033517;28;20255;-58
2022/06/10 04:47:02;;;;;;;23.33;18.67;;;;;;;20.72;90.49;98725.09;5048788;28;20258;-58
2022/06/10 04:49:30;;;;;;;18.80;17.30;;;;;;;20.75;89.97;98721.84;5053311;28;20192;-58
2022/06/10 04:51:56;;;;;;;19.33;17.60;;;;;;;20.39;92.72;98720.44;5041628;28;20564;-57
2022/06/10 04:54:23;;;;;;;19.13;17.30;;;;;;;20.41;91.35;98729.03;5033730;28;20197;-58
2022/06/10 04:56:50;;;;;;;18.87;17.17;;;;;;;20.39;91.27;98726.63;5032984;28;20193;-58
2022/06/10 04:59:18;;;;;;;19.77;17.67;;;;;;;20.41;91.87;98724.47;5033290;28;20223;-58
2022/06/10 05:01:45;;;;;;;20.10;18.07;;;;;;;20.27;92.84;98730.72;5032639;28;20217;-58
2022/06/10 05:04:12;;;;;;;21.87;18.13;;;;;;;20.33;93.33;98726.91;5033359;28;20201;-58
2022/06/10 05:06:38;;;;;;;20.50;18.40;;;;;;;20.50;92.73;98730.09;5033090;28;20197;-58
2022/06/10 05:09:05;;;;;;;19.90;17.83;;;;;;;20.63;92.41;98745.66;5033384;28;20232;-57
2022/06/10 05:11:32;;;;;;;22.23;19.93;;;;;;;20.72;91.70;98752.09;5033326;28;20198;-58
2022/06/10 05:13:59;;;;;;;20.90;18.83;;;;;;;20.55;92.14;98751.66;5033522;28;20194;-58
2022/06/10 05:16:27;;;;;;;23.57;21.07;;;;;;;20.56;91.88;98747.84;5032967;28;20614;-59
2022/06/10 05:18:55;;;;;;;21.77;19.87;;;;;;;20.47;92.78;98739.53;5032858;28;20256;-58
2022/06/10 05:21:22;;;;;;;24.53;22.00;;;;;;;20.56;92.17;98747.84;5032752;28;20248;-58
2022/06/10 05:23:49;;;;;;;22.33;20.03;;;;;;;20.33;93.54;98751.19;5032976;28;20193;-58
2022/06/10 05:26:17;;;;;;;24.80;20.80;;;;;;;20.53;92.74;98748.41;5033032;28;20562;-58
2022/06/10 05:28:46;;;;;;;24.07;20.87;;;;;;;20.50;92.28;98754.38;5033296;28;20205;-58
2022/06/10 05:31:12;;;;;;;22.37;20.27;;;;;;;20.42;93.75;98752.25;5032605;28;20683;-58
2022/06/10 05:36:25;;;;;;;21.87;19.60;;;;;;;20.71;92.09;98755.88;5052660;28;20200;-58
2022/06/10 05:38:52;;;;;;;21.67;19.57;;;;;;;20.75;91.74;98758.81;5052583;28;20229;-58
2022/06/10 05:44:03;;;;;;;22.97;20.60;;;;;;;20.88;92.06;98760.88;5032484;28;20184;-58
2022/06/10 05:46:30;;;;;;;24.27;20.80;;;;;;;20.69;92.42;98758.03;5032548;28;20208;-59
2022/06/10 05:48:58;;;;;;;22.10;20.03;;;;;;;20.55;92.93;98757.03;5037078;28;20629;-59
2022/06/10 05:51:25;;;;;;;23.97;21.23;;;;;;;20.29;95.14;98752.81;5052485;28;20685;-59
2022/06/10 05:53:52;;;;;;;22.73;20.70;;;;;;;20.55;95.20;98754.34;5052391;28;20196;-59
2022/06/10 05:56:18;;;;;;;22.07;20.27;;;;;;;20.73;93.86;98758.25;5052775;28;20203;-59
2022/06/10 05:58:45;;;;;;;23.83;21.37;;;;;;;20.95;91.62;98756.81;5052078;28;20196;-59
2022/06/10 06:01:12;;;;;;;25.37;20.67;;;;;;;21.19;91.10;98751.53;5052300;28;20216;-59
2022/06/10 06:03:39;;;;;;;21.77;19.53;;;;;;;21.35;89.67;98744.91;5052264;28;20556;-59
2022/06/10 06:06:08;;;;;;;21.00;18.87;;;;;;;21.71;89.03;98748.91;5046562;28;20200;-58
2022/06/10 06:08:36;;;;;;;20.37;18.13;;;;;;;21.90;87.18;98745.19;5051833;28;20672;-58
2022/06/10 06:11:03;;;;;;;21.53;18.43;;;;;;;22.12;85.79;98750.88;5052111;28;20205;-58
2022/06/10 06:13:30;;;;;;;18.90;16.90;;;;;;;22.37;84.17;98755.97;5050887;28;20749;-59
2022/06/10 06:15:58;;;;;;;17.43;16.03;;;;;;;22.58;83.85;98753.88;5048589;28;20196;-58
2022/06/10 06:18:24;;;;;;;15.33;14.17;;;;;;;22.63;82.94;98746.50;5052014;28;20279;-58
2022/06/10 06:20:51;;;;;;;17.87;16.27;;;;;;;22.69;82.11;98750.72;5051768;28;20200;-58
2022/06/10 06:23:20;;;;;;;16.53;15.13;;;;;;;22.88;80.84;98759.66;5051676;28;20197;-58
2022/06/10 06:25:46;;;;;;;14.43;13.20;;;;;;;23.02;80.67;98765.94;5051947;28;20197;-58
2022/06/10 06:28:13;;;;;;;17.47;15.77;;;;;;;22.97;79.25;98776.03;5051941;28;20255;-58
2022/06/10 06:30:40;;;;;;;16.10;14.80;;;;;;;23.05;79.46;98770.78;5051286;28;20256;-59
2022/06/10 06:33:09;;;;;;;14.90;13.70;;;;;;;23.23;79.45;98767.25;5051751;28;20197;-59
2022/06/10 06:35:37;;;;;;;16.83;15.17;;;;;;;23.27;77.27;98784.53;5052188;28;20611;-58
2022/06/10 06:38:05;;;;;;;17.60;15.30;;;;;;;23.35;78.21;98778.47;5051659;28;20201;-58
2022/06/10 06:40:33;;;;;;;15.33;14.03;;;;;;;23.87;76.19;98778.09;5051762;28;20598;-59
2022/06/10 06:43:00;;;;;;;14.17;12.97;;;;;;;24.31;73.73;98793.84;5052025;28;20229;-58
2022/06/10 06:45:27;;;;;;;15.73;13.93;;;;;;;24.52;72.44;98795.84;5052222;28;20195;-58
2022/06/10 06:47:54;;;;;;;14.80;13.43;;;;;;;24.59;71.75;98798.94;5051656;28;20210;-59
2022/06/10 06:50:24;;;;;;;14.93;13.40;;;;;;;24.69;71.01;98809.63;5049853;28;20191;-58
2022/06/10 06:52:51;;;;;;;16.53;14.87;;;;;;;24.13;71.77;98809.09;5048670;28;20289;-58
2022/06/10 06:55:18;;;;;;;15.87;14.47;;;;;;;23.92;73.35;98801.63;5051527;28;20204;-57
2022/06/10 06:57:46;;;;;;;16.73;15.20;;;;;;;24.13;72.47;98803.69;5051974;28;20191;-57
2022/06/10 07:00:16;;;;;;;16.37;14.03;;;;;;;24.20;73.95;98809.53;5051803;28;20192;-57
2022/06/10 07:02:42;;;;;;;17.17;15.37;;;;;;;24.36;73.68;98801.88;5051503;28;20222;-57
2022/06/10 07:05:12;;;;;;;17.60;15.90;;;;;;;23.84;74.56;98796.84;5051942;28;20637;-58
2022/06/10 07:07:39;;;;;;;21.07;17.43;;;;;;;23.50;76.38;98789.06;5051628;28;20199;-58
2022/06/10 07:10:07;;;;;;;19.50;17.70;;;;;;;23.61;76.55;98773.41;5051700;28;20556;-59
2022/06/10 07:12:34;;;;;;;17.80;15.97;;;;;;;24.09;76.14;98778.25;5051427;28;20623;-59
2022/06/10 07:15:04;;;;;;;22.77;17.30;;;;;;;24.52;73.18;98784.97;5051220;28;20690;-59
2022/06/10 07:17:32;;;;;;;16.23;14.80;;;;;;;24.90;72.16;98786.34;5051584;28;20199;-59
2022/06/10 07:19:59;;;;;;;19.53;17.40;;;;;;;25.34;69.24;98792.97;5051306;28;20656;-59
2022/06/10 07:22:27;;;;;;;18.43;16.73;;;;;;;25.36;68.22;98804.34;5051125;28;20236;-59
2022/06/10 07:24:54;;;;;;;17.83;16.13;;;;;;;25.67;67.92;98797.03;5053717;28;20204;-59
2022/06/10 07:27:21;;;;;;;16.63;15.03;;;;;;;26.38;65.91;98799.50;5054958;28;20196;-60
2022/06/10 07:29:48;;;;;;;18.87;17.20;;;;;;;26.69;63.14;98797.53;5055003;28;20203;-59
2022/06/10 07:32:16;;;;;;;16.30;14.60;;;;;;;27.02;63.60;98795.97;5055031;28;20355;-60
2022/06/10 07:34:43;;;;;;;13.93;12.70;;;;;;;27.37;62.33;98801.19;5055037;28;20275;-59
2022/06/10 07:37:10;;;;;;;15.87;14.57;;;;;;;27.63;61.15;98801.13;5054550;28;20246;-59
2022/06/10 07:39:37;;;;;;;16.43;14.70;;;;;;;28.10;58.99;98814.53;5054902;28;20688;-60
2022/06/10 07:42:04;;;;;;;15.57;14.23;;;;;;;28.29;58.73;98806.75;5054527;28;20216;-59
2022/06/10 07:44:33;;;;;;;16.83;14.90;;;;;;;28.55;56.90;98812.13;5054737;28;20197;-59
2022/06/10 07:47:04;;;;;;;15.57;14.27;;;;;;;28.60;56.95;98809.19;5054540;28;20226;-59
2022/06/10 07:49:32;;;;;;;15.70;14.40;;;;;;;28.69;55.94;98820.88;5054479;28;20241;-59
2022/06/10 07:52:00;;;;;;;15.53;14.43;;;;;;;28.86;55.40;98809.84;5054192;28;20725;-60
2022/06/10 07:54:26;;;;;;;15.63;14.33;;;;;;;29.07;54.04;98816.16;5054246;28;20208;-59
2022/06/10 07:56:53;;;;;;;16.37;15.07;;;;;;;29.07;54.34;98821.63;5054248;28;20664;-61
2022/06/10 07:59:20;;;;;;;18.00;15.80;;;;;;;28.88;54.58;98818.53;5053774;28;20222;-59
2022/06/10 08:01:47;;;;;;;15.07;13.73;;;;;;;29.20;54.50;98826.06;5054837;28;20216;-60
2022/06/10 08:04:14;;;;;;;14.90;13.80;;;;;;;29.60;50.68;98831.88;5054768;28;20189;-60
2022/06/10 08:06:47;;;;;;;13.07;11.97;;;;;;;29.90;51.23;98823.19;5054800;28;20200;-60
2022/06/10 08:09:14;;;;;;;16.10;13.50;;;;;;;30.04;51.12;98823.69;5054041;28;20641;-60
2022/06/10 08:11:42;;;;;;;15.93;14.20;;;;;;;30.04;50.49;98833.84;5054042;28;20668;-60
2022/06/10 08:14:09;;;;;;;17.50;15.83;;;;;;;29.66;52.56;98836.81;5054185;28;20188;-60
2022/06/10 08:16:37;;;;;;;17.03;15.40;;;;;;;29.48;51.75;98848.22;5054247;28;20192;-60
2022/06/10 08:19:04;;;;;;;15.67;14.40;;;;;;;29.40;52.93;98851.81;5053853;28;20193;-59
2022/06/10 08:24:13;;;;;;;24.93;14.93;;;;;;;29.45;51.91;98849.69;5053318;28;20246;-60
2022/06/10 08:26:40;;;;;;;16.20;14.80;;;;;;;29.74;51.14;98855.09;5054082;28;20615;-60
2022/06/10 08:29:07;;;;;;;15.43;14.23;;;;;;;30.17;49.40;98844.50;5053940;28;20196;-59
2022/06/10 08:31:34;;;;;;;16.90;15.27;;;;;;;30.20;47.53;98860.28;5053762;28;20279;-60
2022/06/10 08:34:02;;;;;;;16.47;14.93;;;;;;;30.54;48.48;98851.63;5053341;28;20254;-60
2022/06/10 08:36:29;;;;;;;15.33;13.97;;;;;;;30.79;47.02;98850.53;5052284;28;20189;-59
2022/06/10 08:38:56;;;;;;;16.03;14.83;;;;;;;30.96;45.90;98841.25;5053555;28;20279;-59
2022/06/10 08:41:32;;;;;;;17.73;16.10;;;;;;;31.08;46.04;98853.03;5053839;28;20188;-60
2022/06/10 08:44:12;;;;;;;16.80;15.63;;;;;;;31.36;45.71;98840.16;5053390;28;20789;-60
2022/06/10 08:47:03;;;;;;;16.50;15.30;;;;;;;31.52;44.45;98843.00;5053836;28;20319;-59
2022/06/10 08:49:48;;;;;;;17.13;15.70;;;;;;;31.49;44.42;98838.19;5053638;28;20199;-59
2022/06/10 08:52:21;;;;;;;16.57;15.37;;;;;;;31.25;45.16;98838.25;5053587;28;20203;-59
2022/06/10 08:55:00;;;;;;;17.67;16.03;;;;;;;31.16;46.13;98845.81;5053068;28;20254;-60
2022/06/10 08:57:35;;;;;;;19.33;17.77;;;;;;;30.86;46.02;98845.25;5053169;28;20250;-60
2022/06/10 09:00:05;;;;;;;18.33;17.00;;;;;;;30.69;46.21;98834.53;5053657;28;20184;-59
2022/06/10 09:02:34;;;;;;;20.13;18.37;;;;;;;30.75;46.95;98837.84;5052957;28;20647;-59
2022/06/10 09:05:07;;;;;;;19.17;17.70;;;;;;;30.68;47.30;98832.09;5053054;28;20193;-59
2022/06/10 09:07:46;;;;;;;19.40;17.63;;;;;;;30.22;47.90;98819.66;5051554;28;20556;-59
2022/06/10 09:10:20;;;;;;;19.93;18.37;;;;;;;30.08;49.28;98827.34;5053130;28;20559;-60
2022/06/10 09:13:25;;;;;;;19.93;18.33;;;;;;;30.15;49.19;98829.53;5052949;28;20189;-59
2022/06/10 09:15:58;;;;;;;19.33;17.63;;;;;;;30.09;49.56;98834.41;5042958;28;20200;-60
2022/06/10 09:18:31;;;;;;;19.40;17.60;;;;;;;29.75;50.21;98825.75;5052492;28;20631;-59
2022/06/10 09:21:07;;;;;;;20.47;17.70;;;;;;;29.33;52.19;98809.34;5052688;28;20184;-60
2022/06/10 09:23:40;;;;;;;20.00;18.00;;;;;;;29.55;51.31;98816.41;5052444;28;20200;-59
2022/06/10 09:26:12;;;;;;;18.70;16.90;;;;;;;29.58;52.15;98817.69;5052518;28;20656;-61
2022/06/10 09:28:42;;;;;;;23.00;17.73;;;;;;;29.95;50.16;98812.00;5053790;28;20189;-59
2022/06/10 09:31:21;;;;;;;23.40;19.13;;;;;;;29.64;50.84;98811.69;5052805;28;20279;-59
2022/06/10 09:33:56;;;;;;;19.53;17.53;;;;;;;29.92;50.64;98820.91;5053135;28;20181;-60
2022/06/10 09:36:34;;;;;;;18.97;17.17;;;;;;;30.12;50.66;98800.84;5052760;28;20193;-60
2022/06/10 09:39:04;;;;;;;18.43;16.57;;;;;;;30.07;49.19;98798.34;5052898;28;20231;-60
2022/06/10 09:41:42;;;;;;;18.10;16.20;;;;;;;29.34;50.37;98804.69;5052854;28;20188;-60
2022/06/10 09:44:22;;;;;;;18.47;16.63;;;;;;;29.19;50.91;98792.41;5052190;28;20761;-61
2022/06/10 09:47:09;;;;;;;16.83;15.20;;;;;;;29.62;50.09;98808.50;5052424;28;20203;-59
2022/06/10 09:50:04;;;;;;;17.70;15.27;;;;;;;29.81;49.54;98814.28;5052218;28;20715;-60
2022/06/10 09:52:36;;;;;;;16.07;14.53;;;;;;;30.09;48.79;98809.75;5049793;28;20565;-60
2022/06/10 09:55:22;;;;;;;17.00;15.20;;;;;;;30.48;47.61;98813.81;5052353;28;20235;-60
2022/06/10 09:58:01;;;;;;;15.90;14.30;;;;;;;30.53;46.94;98808.13;5052526;28;20181;-60
2022/06/10 10:00:36;;;;;;;14.30;12.93;;;;;;;30.52;46.13;98818.28;5052469;28;20212;-60
2022/06/10 10:03:15;;;;;;;15.23;13.73;;;;;;;30.59;47.11;98809.50;5052405;28;20660;-60
2022/06/10 10:05:58;;;;;;;23.50;13.87;;;;;;;30.43;46.72;98808.56;5051945;28;20571;-60
2022/06/10 10:08:33;;;;;;;13.80;12.70;;;;;;;30.21;46.25;98811.75;5051919;28;20250;-60
2022/06/10 10:11:05;;;;;;;13.77;12.57;;;;;;;29.67;47.50;98808.28;5051727;28;20191;-60
2022/06/10 10:13:51;;;;;;;14.50;13.40;;;;;;;29.54;49.18;98790.19;5052436;28;20250;-60
2022/06/10 10:16:29;;;;;;;15.87;14.37;;;;;;;29.44;50.62;98776.13;5052266;28;20238;-59
2022/06/10 10:19:20;;;;;;;14.57;13.20;;;;;;;29.36;51.68;98786.00;5052079;28;20185;-60
2022/06/10 10:21:55;;;;;;;14.47;13.03;;;;;;;29.25;51.69;98782.06;5052025;28;20318;-59
2022/06/10 10:24:25;;;;;;;15.77;13.40;;;;;;;29.16;52.21;98775.88;5051591;28;20219;-60
2022/06/10 10:26:58;;;;;;;14.73;13.43;;;;;;;28.81;53.52;98777.22;5051631;28;20205;-60
2022/06/10 10:29:26;;;;;;;17.27;13.03;;;;;;;28.90;53.00;98786.16;5051838;28;20220;-60
2022/06/10 10:32:00;;;;;;;13.63;12.53;;;;;;;28.91;52.77;98790.53;5052124;28;20261;-60
2022/06/10 10:34:32;;;;;;;14.37;13.30;;;;;;;28.88;52.66;98772.81;5052854;28;20610;-60
2022/06/10 10:37:01;;;;;;;14.33;13.03;;;;;;;28.95;52.67;98783.25;5051813;28;20192;-59
2022/06/10 10:39:31;;;;;;;13.03;12.00;;;;;;;28.98;53.22;98774.38;5051973;28;20220;-59
2022/06/10 10:42:00;;;;;;;14.00;12.90;;;;;;;29.08;53.30;98774.00;5051944;28;20192;-60
2022/06/10 10:44:36;;;;;;;14.90;13.60;;;;;;;29.20;52.55;98771.34;5051789;28;20252;-59
2022/06/10 10:47:17;;;;;;;14.73;13.53;;;;;;;29.38;52.34;98777.44;5051445;28;20188;-61
2022/06/10 10:49:48;;;;;;;15.57;14.00;;;;;;;29.07;52.40;98773.19;5052075;28;20188;-59
2022/06/10 10:52:20;;;;;;;15.77;14.47;;;;;;;28.44;54.01;98764.44;5051373;28;20189;-60
2022/06/10 10:54:52;;;;;;;16.03;14.77;;;;;;;28.46;54.67;98764.91;5051682;28;20195;-60
2022/06/10 10:57:29;;;;;;;16.93;14.40;;;;;;;28.63;54.01;98767.56;5051478;28;20586;-59
2022/06/10 11:00:03;;;;;;;15.03;13.67;;;;;;;28.78;54.20;98753.28;5054239;28;20188;-60
2022/06/10 11:02:38;;;;;;;20.87;15.23;;;;;;;28.88;53.84;98758.38;5055190;28;20188;-59
2022/06/10 11:05:19;;;;;;;17.57;16.03;;;;;;;28.91;53.59;98760.44;5055452;28;20188;-59
2022/06/10 11:07:47;;;;;;;17.07;15.67;;;;;;;28.78;53.30;98758.75;5055137;28;20195;-60
2022/06/10 11:10:19;;;;;;;18.30;16.43;;;;;;;28.54;55.51;98764.06;5055473;28;20246;-60
2022/06/10 11:12:46;;;;;;;18.83;16.57;;;;;;;28.40;55.67;98758.81;5055648;28;20185;-59
2022/06/10 11:15:18;;;;;;;17.50;15.80;;;;;;;28.31;54.78;98763.53;5055119;28;20317;-59
2022/06/10 11:17:49;;;;;;;18.37;15.90;;;;;;;28.16;55.31;98755.06;5055557;28;20189;-60
2022/06/10 11:20:27;;;;;;;16.63;15.07;;;;;;;28.20;56.10;98754.09;5054924;28;20723;-60
2022/06/10 11:23:11;;;;;;;18.33;16.67;;;;;;;28.28;55.75;98750.50;5055026;28;20224;-60
2022/06/10 11:25:38;;;;;;;22.00;19.70;;;;;;;26.63;62.25;98725.25;5055092;28;20185;-60
2022/06/10 11:28:19;;;;;;;23.27;20.47;;;;;;;26.96;61.14;98729.13;5055039;28;20234;-61
2022/06/10 11:30:49;;;;;;;27.03;20.47;;;;;;;27.22;60.61;98740.84;5056274;28;20258;-60
2022/06/10 11:33:31;;;;;;;23.33;21.00;;;;;;;27.19;60.33;98728.63;5055279;28;20192;-59
2022/06/10 11:36:09;;;;;;;23.90;21.47;;;;;;;27.29;60.87;98739.25;5055446;28;20209;-59
2022/06/10 11:38:39;;;;;;;25.23;22.73;;;;;;;27.40;60.29;98732.31;5054708;28;20265;-58
2022/06/10 11:41:23;;;;;;;26.30;23.47;;;;;;;27.48;60.39;98730.69;5054598;28;20199;-58
2022/06/10 11:43:56;;;;;;;23.67;21.20;;;;;;;27.56;60.41;98718.97;5055078;28;20589;-58
2022/06/10 11:46:35;;;;;;;27.43;24.47;;;;;;;27.48;61.19;98715.13;5055278;28;20192;-59
2022/06/10 11:49:12;;;;;;;20.97;18.87;;;;;;;27.53;61.32;98727.78;5054731;28;20189;-59